createdAt,value
2018-04-13T00:01:25.739Z,17.9
2018-04-13T00:11:27.726Z,18.5
2018-04-13T00:21:25.788Z,16.9
2018-04-13T00:31:26.746Z,19.2
2018-04-13T00:41:26.471Z,19.8
2018-04-13T00:51:26.317Z,19.4
2018-04-13T01:01:28.790Z,21.2
2018-04-13T01:51:26.952Z,21.9
2018-04-13T02:01:27.112Z,20.4
2018-04-13T02:11:26.349Z,22.1
2018-04-13T02:21:26.629Z,21.3
2018-04-13T02:31:26.389Z,22.0
2018-04-13T02:41:28.675Z,20.6
2018-04-13T02:51:27.818Z,22.0
2018-04-13T03:01:26.888Z,21.4
2018-04-13T03:11:27.804Z,22.7
2018-04-13T03:21:28.184Z,24.7
2018-04-13T03:31:26.004Z,23.8
2018-04-13T03:41:26.746Z,22.9
2018-04-13T03:51:26.948Z,23.2
2018-04-13T04:01:29.474Z,24.1
2018-04-13T04:11:26.941Z,22.4
2018-04-13T04:21:28.134Z,22.7
2018-04-13T04:31:28.735Z,22.1
2018-04-13T04:41:28.926Z,24.0
2018-04-13T04:51:27.204Z,25.1
2018-04-13T05:01:25.895Z,24.3
2018-04-13T05:11:32.483Z,24.2
2018-04-13T05:21:26.504Z,23.4
2018-04-13T05:31:29.007Z,22.6
2018-04-13T05:41:26.925Z,24.5
2018-04-13T05:51:26.922Z,23.0
2018-04-13T06:01:27.948Z,22.7
2018-04-13T06:11:26.601Z,23.0
2018-04-13T06:21:26.847Z,24.1
2018-04-13T06:31:28.501Z,24.3
2018-04-13T06:41:27.093Z,20.6
2018-04-13T06:51:28.434Z,32.4
2018-04-13T07:01:26.503Z,26.6
2018-04-13T07:11:28.276Z,22.0
2018-04-13T07:21:26.422Z,19.0
2018-04-13T07:31:26.554Z,19.5
2018-04-13T07:41:28.565Z,20.3
2018-04-13T07:51:25.765Z,32.7
2018-04-13T08:01:26.005Z,23.8
2018-04-13T08:11:28.436Z,26.5
2018-04-13T08:21:25.595Z,23.5
2018-04-13T08:31:26.596Z,20.8
2018-04-13T08:41:26.415Z,19.9
2018-04-13T08:51:26.086Z,19.0
2018-04-13T09:01:27.301Z,16.9
2018-04-13T09:11:27.947Z,15.8
2018-04-13T09:21:26.345Z,14.3
2018-04-13T09:31:26.082Z,12.5
2018-04-13T09:41:26.923Z,11.8
2018-04-13T09:51:26.048Z,12.0
2018-04-13T10:01:25.848Z,11.5
2018-04-13T10:11:25.893Z,10.2
2018-04-13T10:21:24.879Z,8.8
2018-04-13T10:31:25.632Z,9.9
2018-04-13T10:41:28.717Z,8.6
2018-04-13T10:51:25.608Z,9.9
2018-04-13T11:01:27.626Z,8.3
2018-04-13T11:11:26.145Z,9.1
2018-04-13T11:21:27.616Z,8.1
2018-04-13T11:31:31.109Z,8.9
2018-04-13T11:41:26.316Z,7.6
2018-04-13T11:51:27.451Z,7.4
2018-04-13T12:01:25.392Z,6.1
2018-04-13T12:11:29.097Z,6.3
2018-04-13T12:21:25.189Z,3.1
2018-04-13T12:31:25.090Z,2.6
2018-04-13T12:41:32.296Z,3.5
2018-04-13T12:51:26.263Z,3.6
2018-04-13T13:01:28.324Z,4.1
2018-04-13T13:11:26.418Z,4.3
2018-04-13T13:21:26.339Z,4.4
2018-04-13T13:31:27.663Z,4.6
2018-04-13T13:41:26.392Z,4.5
2018-04-13T13:51:25.255Z,4.9
2018-04-13T14:01:26.998Z,4.4
2018-04-13T14:11:27.347Z,5.7
2018-04-13T14:21:26.149Z,5.0
2018-04-13T14:31:26.061Z,4.7
2018-04-13T14:41:27.095Z,6.0
2018-04-13T14:51:26.641Z,5.1
2018-04-13T15:01:27.382Z,4.7
2018-04-13T15:11:25.573Z,4.3
2018-04-13T15:21:27.460Z,3.7
2018-04-13T15:31:25.217Z,4.4
2018-04-13T15:41:26.801Z,4.7
2018-04-13T15:51:28.105Z,4.5
2018-04-13T16:01:25.903Z,4.7
2018-04-13T16:11:26.506Z,3.8
2018-04-13T16:21:28.224Z,4.7
2018-04-13T16:31:25.937Z,4.9
2018-04-13T16:41:25.892Z,5.6
2018-04-13T16:51:26.934Z,6.4
2018-04-13T17:01:26.787Z,5.9
2018-04-13T17:11:26.629Z,5.2
2018-04-13T17:21:26.828Z,4.8
2018-04-13T17:31:26.880Z,6.0
2018-04-13T17:41:28.580Z,5.4
2018-04-13T17:51:25.233Z,6.0
2018-04-13T18:01:25.095Z,5.8
2018-04-13T18:11:24.989Z,7.4
2018-04-13T18:21:27.974Z,8.5
2018-04-13T18:31:25.864Z,8.7
2018-04-13T18:41:25.617Z,7.9
2018-04-13T18:51:28.085Z,6.8
2018-04-13T19:01:27.202Z,7.8
2018-04-13T19:11:28.112Z,7.8
2018-04-13T19:21:25.486Z,8.5
2018-04-13T19:31:27.447Z,9.6
2018-04-13T19:41:26.979Z,8.9
2018-04-13T19:51:27.173Z,10.9
2018-04-13T20:01:28.347Z,10.8
2018-04-13T20:11:28.470Z,11.8
2018-04-13T20:21:29.155Z,12.2
2018-04-13T20:31:25.187Z,13.1
2018-04-13T20:41:33.093Z,12.9
2018-04-13T20:51:27.110Z,12.6
2018-04-13T21:01:27.444Z,13.2
2018-04-13T21:11:27.594Z,13.2
2018-04-13T21:21:26.935Z,15.9
2018-04-13T21:31:26.572Z,14.5
2018-04-13T21:41:29.168Z,13.1
2018-04-13T21:51:27.240Z,13.7
2018-04-13T22:01:32.771Z,13.6
2018-04-13T22:11:27.484Z,14.2
2018-04-13T22:21:26.742Z,14.3
2018-04-13T22:31:27.917Z,13.7
2018-04-13T22:41:26.810Z,14.0
2018-04-13T22:51:32.993Z,14.4
2018-04-13T23:01:33.222Z,13.6
2018-04-13T23:11:26.516Z,11.6
2018-04-13T23:21:56.656Z,13.1
2018-04-13T23:31:26.768Z,14.0
2018-04-13T23:41:32.181Z,14.1
2018-04-13T23:51:28.377Z,14.0
